Jack Robertson — WDE5993 — position and weather

sailwx.info

Track history (hours):
 
Tides and Currents Weather Stations Pressure Air Temp Water Temp Dewpoint Dewpoint Depression Visibility Wind Speed Wind Dir Waves Ship Positions

Oceanographic research ship Jack Robertson (United States)

Owner: University of Washington Applied Physics Laboratory, Seattle, WA. More information available from US FCC via Universal Licensing System and Coast Guard Vessel Documentation Center.

Last reported at 2018-Jun-24 01:33 UTC. Time now 2018-Jun-24 09:18 UTC.
Position N 47°41' W 122°24'.

; draft 1.7 m.

Type: Other ship. MMSI: 367374350.

Date/timePositionNaut miles runAvg speedWind from/ knotsBaromVisibWave heightAir tempDewpointWater temp
2018-Jun-24 01:33N 47°41' W 122°24'0 0.0
2018-Jun-24 01:30N 47°41' W 122°24'3 5.2
2018-Jun-24 01:00N 47°43' W 122°24'0 0.2
2018-Jun-24 00:30N 47°43' W 122°24'0 0.7
2018-Jun-24 00:00N 47°44' W 122°24'0 0.9
2018-Jun-23 23:29N 47°43' W 122°24'0 0.3
2018-Jun-23 23:00N 47°43' W 122°24'0 0.1
2018-Jun-23 22:30N 47°43' W 122°24'0 0.0
2018-Jun-23 22:00N 47°43' W 122°24'0 0.2
2018-Jun-23 21:30N 47°43' W 122°24'0 0.4
2018-Jun-23 21:00N 47°44' W 122°24'0 0.4
2018-Jun-23 20:30N 47°44' W 122°24'0 0.6
2018-Jun-23 20:00N 47°44' W 122°24'2 3.4
2018-Jun-23 19:30N 47°42' W 122°24'0 0.9
2018-Jun-23 19:00N 47°43' W 122°24'0 0.7
2018-Jun-23 18:30N 47°43' W 122°24'0 0.7
2018-Jun-23 18:00N 47°43' W 122°24'0 1.0
2018-Jun-23 17:30N 47°43' W 122°24'0 0.6
2018-Jun-23 17:00N 47°43' W 122°24'0 0.6
2018-Jun-23 16:30N 47°44' W 122°24'0 0.5
2018-Jun-23 16:00N 47°44' W 122°24'2 4.7
2018-Jun-23 15:30N 47°41' W 122°24'0 0.0
2018-Jun-23 01:01N 47°41' W 122°24'0 0.0
2018-Jun-23 01:00N 47°41' W 122°24'3 6.3
2018-Jun-23 00:30N 47°44' W 122°23'3 5.6
2018-Jun-23 00:00N 47°41' W 122°24'3 6.1
2018-Jun-22 23:30N 47°44' W 122°23'0 0.3
2018-Jun-22 23:00N 47°44' W 122°23'0 0.5
2018-Jun-22 22:30N 47°44' W 122°24'1 1.0
2018-Jun-22 22:00N 47°44' W 122°24'1 1.4
2018-Jun-22 21:30N 47°44' W 122°23'0 0.6
2018-Jun-22 21:00N 47°44' W 122°24'0 0.5
2018-Jun-22 20:30N 47°44' W 122°24'1 1.1
2018-Jun-22 20:00N 47°44' W 122°24'0 0.2
2018-Jun-22 19:30N 47°44' W 122°24'0 0.3
2018-Jun-22 19:00N 47°44' W 122°24'0 0.3
2018-Jun-22 18:30N 47°44' W 122°24'0 0.2
2018-Jun-22 18:00N 47°44' W 122°24'0 0.2
2018-Jun-22 17:30N 47°44' W 122°24'0 0.2
2018-Jun-22 17:00N 47°44' W 122°24'0 0.3
2018-Jun-22 16:30N 47°44' W 122°24'1 2.8
2018-Jun-22 16:00N 47°42' W 122°24'1 0.1
2018-Jun-22 01:51N 47°41' W 122°24'0 0.1
2018-Jun-22 01:31N 47°41' W 122°24'3 5.8
2018-Jun-22 01:00N 47°44' W 122°24'0 0.2
2018-Jun-22 00:30N 47°44' W 122°24'1 1.0
2018-Jun-22 00:00N 47°44' W 122°23'1 1.1
2018-Jun-21 23:30N 47°44' W 122°24'0 0.7
2018-Jun-21 23:00N 47°44' W 122°24'3 5.2
2018-Jun-21 22:30N 47°41' W 122°24'0 0.0
2018-Jun-21 22:00N 47°41' W 122°24'0 0.0
2018-Jun-21 21:30N 47°41' W 122°24'0 0.0
2018-Jun-21 21:00N 47°41' W 122°24'2 4.4
2018-Jun-21 20:30N 47°43' W 122°24'1 2.4
2018-Jun-21 20:00N 47°45' W 122°25'0 0.6
2018-Jun-21 19:30N 47°44' W 122°25'1 1.4
2018-Jun-21 19:00N 47°43' W 122°25'0 0.2
2018-Jun-21 18:30N 47°43' W 122°25'0 0.3
2018-Jun-21 18:00N 47°43' W 122°25'1 1.3
2018-Jun-21 17:30N 47°44' W 122°24'0 0.4
2018-Jun-21 17:00N 47°44' W 122°24'2 4.6
2018-Jun-21 16:31N 47°41' W 122°24'0 0.2
2018-Jun-21 14:25N 47°41' W 122°24'0 0.0
2018-Jun-21 14:00N 47°41' W 122°24'0 0.0
2018-Jun-21 13:30N 47°41' W 122°24'0 0.0
2018-Jun-21 13:01N 47°41' W 122°24'0 0.0
2018-Jun-21 12:30N 47°41' W 122°24'0 0.0
2018-Jun-21 12:00N 47°41' W 122°24'0 0.0
2018-Jun-21 11:30N 47°41' W 122°24'0 0.0
2018-Jun-21 11:00N 47°41' W 122°24'0 0.0
2018-Jun-21 10:30N 47°41' W 122°24'0 0.0
2018-Jun-21 10:00N 47°41' W 122°24'0 0.0
2018-Jun-21 09:30N 47°41' W 122°24'0 0.0
2018-Jun-21 09:00N 47°41' W 122°24'0 0.0
2018-Jun-21 08:30N 47°41' W 122°24'0 0.0
2018-Jun-21 08:00N 47°41' W 122°24'0 0.0
2018-Jun-21 07:30N 47°41' W 122°24'0 0.0
2018-Jun-21 07:00N 47°41' W 122°24'0 0.0
2018-Jun-21 06:30N 47°41' W 122°24'0 0.0
2018-Jun-21 06:00N 47°41' W 122°24'0 0.0
2018-Jun-21 05:30N 47°41' W 122°24'0 0.0
2018-Jun-21 05:01N 47°41' W 122°24'0 0.0
2018-Jun-21 04:30N 47°41' W 122°24'0 0.0
2018-Jun-21 04:00N 47°41' W 122°24'0 0.0
2018-Jun-21 03:30N 47°41' W 122°24'0 0.0
2018-Jun-21 03:00N 47°41' W 122°24'0 0.0
2018-Jun-21 02:30N 47°41' W 122°24'0 0.0
2018-Jun-21 02:01N 47°41' W 122°24'0 0.0
2018-Jun-21 01:31N 47°41' W 122°24'0 0.0
2018-Jun-21 01:00N 47°41' W 122°24'0 0.0
2018-Jun-21 00:31N 47°41' W 122°24'1 2.8
2018-Jun-21 00:00N 47°42' W 122°25'2 3.4
2018-Jun-20 23:31N 47°44' W 122°24'0 0.6
2018-Jun-20 23:01N 47°44' W 122°24'0 0.1
2018-Jun-20 22:30N 47°44' W 122°24'0 0.3
2018-Jun-20 22:00N 47°44' W 122°24'1 2.1
2018-Jun-20 21:30N 47°43' W 122°25'0 0.4
2018-Jun-20 21:00N 47°43' W 122°25'1 1.1
2018-Jun-20 20:30N 47°43' W 122°24'0 0.7
2018-Jun-20 20:00N 47°43' W 122°24'0 0.7
2018-Jun-20 19:30N 47°43' W 122°24'1 2.5
2018-Jun-20 19:00N 47°44' W 122°24'0 0.6
2018-Jun-20 18:30N 47°44' W 122°24'0 0.4
2018-Jun-20 18:00N 47°44' W 122°24'0 0.9
2018-Jun-20 17:30N 47°44' W 122°24'1 2.1
2018-Jun-20 17:00N 47°43' W 122°24'0 0.7
2018-Jun-20 16:30N 47°43' W 122°24'0 0.8
2018-Jun-20 16:00N 47°44' W 122°24'1 1.9
2018-Jun-20 15:30N 47°43' W 122°25'3 5.6
2018-Jun-20 15:00N 47°40' W 122°24'2 3.8
2018-Jun-20 14:30N 47°39' W 122°21'2 3.1
2018-Jun-20 14:00N 47°39' W 122°19'  
2018-Jun-15 23:13N 47°39' W 122°19'0 0.2
2018-Jun-15 23:00N 47°39' W 122°19'0 0.1
2018-Jun-15 22:30N 47°39' W 122°19'2 3.0
2018-Jun-15 22:00N 47°39' W 122°21'2 3.7
2018-Jun-15 21:30N 47°40' W 122°24'1 2.1
2018-Jun-15 21:00N 47°41' W 122°25'2 3.8
2018-Jun-15 20:30N 47°43' W 122°25'2 4.2
2018-Jun-15 20:00N 47°45' W 122°24'0 0.2
2018-Jun-15 19:30N 47°45' W 122°24'0 0.4
2018-Jun-15 19:00N 47°45' W 122°24'0 0.9
2018-Jun-15 18:30N 47°45' W 122°24'1 1.1
2018-Jun-15 18:00N 47°44' W 122°24'0 0.2
2018-Jun-15 17:30N 47°44' W 122°24'0 0.2
2018-Jun-15 17:00N 47°44' W 122°24'0 0.3
2018-Jun-15 16:30N 47°44' W 122°24'0 0.5
2018-Jun-15 16:00N 47°44' W 122°24'1 2.9
2018-Jun-15 15:30N 47°42' W 122°25'1 0.1
2018-Jun-14 20:46N 47°41' W 122°24'1 3.6
2018-Jun-14 20:30N 47°40' W 122°24'1 2.6
2018-Jun-14 20:00N 47°39' W 122°22'  
Track history (hours):
 
Tides and Currents Weather Stations Pressure Air Temp Water Temp Dewpoint Dewpoint Depression Visibility Wind Speed Wind Dir Waves Ship Positions

Oceanographic research ship Jack Robertson (United States)

Owner: University of Washington Applied Physics Laboratory, Seattle, WA. More information available from US FCC via Universal Licensing System and Coast Guard Vessel Documentation Center.

Last reported at 2018-Jun-24 01:33 UTC. Time now 2018-Jun-24 09:18 UTC.
Position N 47°41' W 122°24'.

; draft 1.7 m.

Type: Other ship. MMSI: 367374350.

Date/timePositionNaut miles runAvg speedWind from/ knotsBaromVisibWave heightAir tempDewpointWater temp
2018-Jun-24 01:33N 47°41' W 122°24'0 0.0
2018-Jun-24 01:30N 47°41' W 122°24'3 5.2
2018-Jun-24 01:00N 47°43' W 122°24'0 0.2
2018-Jun-24 00:30N 47°43' W 122°24'0 0.7
2018-Jun-24 00:00N 47°44' W 122°24'0 0.9
2018-Jun-23 23:29N 47°43' W 122°24'0 0.3
2018-Jun-23 23:00N 47°43' W 122°24'0 0.1
2018-Jun-23 22:30N 47°43' W 122°24'0 0.0
2018-Jun-23 22:00N 47°43' W 122°24'0 0.2
2018-Jun-23 21:30N 47°43' W 122°24'0 0.4
2018-Jun-23 21:00N 47°44' W 122°24'0 0.4
2018-Jun-23 20:30N 47°44' W 122°24'0 0.6
2018-Jun-23 20:00N 47°44' W 122°24'2 3.4
2018-Jun-23 19:30N 47°42' W 122°24'0 0.9
2018-Jun-23 19:00N 47°43' W 122°24'0 0.7
2018-Jun-23 18:30N 47°43' W 122°24'0 0.7
2018-Jun-23 18:00N 47°43' W 122°24'0 1.0
2018-Jun-23 17:30N 47°43' W 122°24'0 0.6
2018-Jun-23 17:00N 47°43' W 122°24'0 0.6
2018-Jun-23 16:30N 47°44' W 122°24'0 0.5
2018-Jun-23 16:00N 47°44' W 122°24'2 4.7
2018-Jun-23 15:30N 47°41' W 122°24'0 0.0
2018-Jun-23 01:01N 47°41' W 122°24'0 0.0
2018-Jun-23 01:00N 47°41' W 122°24'3 6.3
2018-Jun-23 00:30N 47°44' W 122°23'3 5.6
2018-Jun-23 00:00N 47°41' W 122°24'3 6.1
2018-Jun-22 23:30N 47°44' W 122°23'0 0.3
2018-Jun-22 23:00N 47°44' W 122°23'0 0.5
2018-Jun-22 22:30N 47°44' W 122°24'1 1.0
2018-Jun-22 22:00N 47°44' W 122°24'1 1.4
2018-Jun-22 21:30N 47°44' W 122°23'0 0.6
2018-Jun-22 21:00N 47°44' W 122°24'0 0.5
2018-Jun-22 20:30N 47°44' W 122°24'1 1.1
2018-Jun-22 20:00N 47°44' W 122°24'0 0.2
2018-Jun-22 19:30N 47°44' W 122°24'0 0.3
2018-Jun-22 19:00N 47°44' W 122°24'0 0.3
2018-Jun-22 18:30N 47°44' W 122°24'0 0.2
2018-Jun-22 18:00N 47°44' W 122°24'0 0.2
2018-Jun-22 17:30N 47°44' W 122°24'0 0.2
2018-Jun-22 17:00N 47°44' W 122°24'0 0.3
2018-Jun-22 16:30N 47°44' W 122°24'1 2.8
2018-Jun-22 16:00N 47°42' W 122°24'1 0.1
2018-Jun-22 01:51N 47°41' W 122°24'0 0.1
2018-Jun-22 01:31N 47°41' W 122°24'3 5.8
2018-Jun-22 01:00N 47°44' W 122°24'0 0.2
2018-Jun-22 00:30N 47°44' W 122°24'1 1.0
2018-Jun-22 00:00N 47°44' W 122°23'1 1.1
2018-Jun-21 23:30N 47°44' W 122°24'0 0.7
2018-Jun-21 23:00N 47°44' W 122°24'3 5.2
2018-Jun-21 22:30N 47°41' W 122°24'0 0.0
2018-Jun-21 22:00N 47°41' W 122°24'0 0.0
2018-Jun-21 21:30N 47°41' W 122°24'0 0.0
2018-Jun-21 21:00N 47°41' W 122°24'2 4.4
2018-Jun-21 20:30N 47°43' W 122°24'1 2.4
2018-Jun-21 20:00N 47°45' W 122°25'0 0.6
2018-Jun-21 19:30N 47°44' W 122°25'1 1.4
2018-Jun-21 19:00N 47°43' W 122°25'0 0.2
2018-Jun-21 18:30N 47°43' W 122°25'0 0.3
2018-Jun-21 18:00N 47°43' W 122°25'1 1.3
2018-Jun-21 17:30N 47°44' W 122°24'0 0.4
2018-Jun-21 17:00N 47°44' W 122°24'2 4.6
2018-Jun-21 16:31N 47°41' W 122°24'0 0.2
2018-Jun-21 14:25N 47°41' W 122°24'0 0.0
2018-Jun-21 14:00N 47°41' W 122°24'0 0.0
2018-Jun-21 13:30N 47°41' W 122°24'0 0.0
2018-Jun-21 13:01N 47°41' W 122°24'0 0.0
2018-Jun-21 12:30N 47°41' W 122°24'0 0.0
2018-Jun-21 12:00N 47°41' W 122°24'0 0.0
2018-Jun-21 11:30N 47°41' W 122°24'0 0.0
2018-Jun-21 11:00N 47°41' W 122°24'0 0.0
2018-Jun-21 10:30N 47°41' W 122°24'0 0.0
2018-Jun-21 10:00N 47°41' W 122°24'0 0.0
2018-Jun-21 09:30N 47°41' W 122°24'0 0.0
2018-Jun-21 09:00N 47°41' W 122°24'0 0.0
2018-Jun-21 08:30N 47°41' W 122°24'0 0.0
2018-Jun-21 08:00N 47°41' W 122°24'0 0.0
2018-Jun-21 07:30N 47°41' W 122°24'0 0.0
2018-Jun-21 07:00N 47°41' W 122°24'0 0.0
2018-Jun-21 06:30N 47°41' W 122°24'0 0.0
2018-Jun-21 06:00N 47°41' W 122°24'0 0.0
2018-Jun-21 05:30N 47°41' W 122°24'0 0.0
2018-Jun-21 05:01N 47°41' W 122°24'0 0.0
2018-Jun-21 04:30N 47°41' W 122°24'0 0.0
2018-Jun-21 04:00N 47°41' W 122°24'0 0.0
2018-Jun-21 03:30N 47°41' W 122°24'0 0.0
2018-Jun-21 03:00N 47°41' W 122°24'0 0.0
2018-Jun-21 02:30N 47°41' W 122°24'0 0.0
2018-Jun-21 02:01N 47°41' W 122°24'0 0.0
2018-Jun-21 01:31N 47°41' W 122°24'0 0.0
2018-Jun-21 01:00N 47°41' W 122°24'0 0.0
2018-Jun-21 00:31N 47°41' W 122°24'1 2.8
2018-Jun-21 00:00N 47°42' W 122°25'2 3.4
2018-Jun-20 23:31N 47°44' W 122°24'0 0.6
2018-Jun-20 23:01N 47°44' W 122°24'0 0.1
2018-Jun-20 22:30N 47°44' W 122°24'0 0.3
2018-Jun-20 22:00N 47°44' W 122°24'1 2.1
2018-Jun-20 21:30N 47°43' W 122°25'0 0.4
2018-Jun-20 21:00N 47°43' W 122°25'1 1.1
2018-Jun-20 20:30N 47°43' W 122°24'0 0.7
2018-Jun-20 20:00N 47°43' W 122°24'0 0.7
2018-Jun-20 19:30N 47°43' W 122°24'1 2.5
2018-Jun-20 19:00N 47°44' W 122°24'0 0.6
2018-Jun-20 18:30N 47°44' W 122°24'0 0.4
2018-Jun-20 18:00N 47°44' W 122°24'0 0.9
2018-Jun-20 17:30N 47°44' W 122°24'1 2.1
2018-Jun-20 17:00N 47°43' W 122°24'0 0.7
2018-Jun-20 16:30N 47°43' W 122°24'0 0.8
2018-Jun-20 16:00N 47°44' W 122°24'1 1.9
2018-Jun-20 15:30N 47°43' W 122°25'3 5.6
2018-Jun-20 15:00N 47°40' W 122°24'2 3.8
2018-Jun-20 14:30N 47°39' W 122°21'2 3.1
2018-Jun-20 14:00N 47°39' W 122°19'  
2018-Jun-15 23:13N 47°39' W 122°19'0 0.2
2018-Jun-15 23:00N 47°39' W 122°19'0 0.1
2018-Jun-15 22:30N 47°39' W 122°19'2 3.0
2018-Jun-15 22:00N 47°39' W 122°21'2 3.7
2018-Jun-15 21:30N 47°40' W 122°24'1 2.1
2018-Jun-15 21:00N 47°41' W 122°25'2 3.8
2018-Jun-15 20:30N 47°43' W 122°25'2 4.2
2018-Jun-15 20:00N 47°45' W 122°24'0 0.2
2018-Jun-15 19:30N 47°45' W 122°24'0 0.4
2018-Jun-15 19:00N 47°45' W 122°24'0 0.9
2018-Jun-15 18:30N 47°45' W 122°24'1 1.1
2018-Jun-15 18:00N 47°44' W 122°24'0 0.2
2018-Jun-15 17:30N 47°44' W 122°24'0 0.2
2018-Jun-15 17:00N 47°44' W 122°24'0 0.3
2018-Jun-15 16:30N 47°44' W 122°24'0 0.5
2018-Jun-15 16:00N 47°44' W 122°24'1 2.9
2018-Jun-15 15:30N 47°42' W 122°25'1 0.1
2018-Jun-14 20:46N 47°41' W 122°24'1 3.6
2018-Jun-14 20:30N 47°40' W 122°24'1 2.6
2018-Jun-14 20:00N 47°39' W 122°22'  

Dump ship's entire track history